sensor_id;sensor_type;location;lat;lon;timestamp;P1;durP1;ratioP1;P2;durP2;ratioP2
27333;SDS011;14817;57.104;-2.094;2024-03-29T00:00:46;9.45;;;2.08;;
27333;SDS011;14817;57.104;-2.094;2024-03-29T00:03:12;16.60;;;1.95;;
27333;SDS011;14817;57.104;-2.094;2024-03-29T00:05:38;18.75;;;2.67;;
27333;SDS011;14817;57.104;-2.094;2024-03-29T00:08:04;16.00;;;2.45;;
27333;SDS011;14817;57.104;-2.094;2024-03-29T00:10:30;18.92;;;3.08;;
27333;SDS011;14817;57.104;-2.094;2024-03-29T00:12:56;15.88;;;1.70;;
27333;SDS011;14817;57.104;-2.094;2024-03-29T00:15:22;12.90;;;2.00;;
27333;SDS011;14817;57.104;-2.094;2024-03-29T00:17:48;10.25;;;1.33;;
27333;SDS011;14817;57.104;-2.094;2024-03-29T00:20:14;14.13;;;2.20;;
27333;SDS011;14817;57.104;-2.094;2024-03-29T00:22:40;16.42;;;2.35;;
27333;SDS011;14817;57.104;-2.094;2024-03-29T00:25:06;12.82;;;2.28;;
27333;SDS011;14817;57.104;-2.094;2024-03-29T00:27:33;17.38;;;2.92;;
27333;SDS011;14817;57.104;-2.094;2024-03-29T00:29:58;17.85;;;3.00;;
27333;SDS011;14817;57.104;-2.094;2024-03-29T00:32:24;13.38;;;1.88;;
27333;SDS011;14817;57.104;-2.094;2024-03-29T00:34:52;12.98;;;2.22;;
27333;SDS011;14817;57.104;-2.094;2024-03-29T00:37:19;15.57;;;2.15;;
27333;SDS011;14817;57.104;-2.094;2024-03-29T00:39:45;19.40;;;1.70;;
27333;SDS011;14817;57.104;-2.094;2024-03-29T00:42:11;10.15;;;2.15;;
27333;SDS011;14817;57.104;-2.094;2024-03-29T00:44:43;19.77;;;3.42;;
27333;SDS011;14817;57.104;-2.094;2024-03-29T00:47:09;25.17;;;2.97;;
27333;SDS011;14817;57.104;-2.094;2024-03-29T00:49:35;11.68;;;1.92;;
27333;SDS011;14817;57.104;-2.094;2024-03-29T00:52:01;16.65;;;2.15;;
27333;SDS011;14817;57.104;-2.094;2024-03-29T00:54:28;20.75;;;2.83;;
27333;SDS011;14817;57.104;-2.094;2024-03-29T00:56:54;16.38;;;2.20;;
27333;SDS011;14817;57.104;-2.094;2024-03-29T00:59:20;16.38;;;1.73;;
27333;SDS011;14817;57.104;-2.094;2024-03-29T01:01:46;19.63;;;2.35;;
27333;SDS011;14817;57.104;-2.094;2024-03-29T01:04:12;10.93;;;1.73;;
27333;SDS011;14817;57.104;-2.094;2024-03-29T01:06:38;12.55;;;1.80;;
27333;SDS011;14817;57.104;-2.094;2024-03-29T01:09:06;17.25;;;2.78;;
27333;SDS011;14817;57.104;-2.094;2024-03-29T01:11:32;21.35;;;2.65;;
27333;SDS011;14817;57.104;-2.094;2024-03-29T01:13:58;16.73;;;2.35;;
27333;SDS011;14817;57.104;-2.094;2024-03-29T01:16:24;10.30;;;2.00;;
27333;SDS011;14817;57.104;-2.094;2024-03-29T01:18:50;11.20;;;1.90;;
27333;SDS011;14817;57.104;-2.094;2024-03-29T01:21:17;9.85;;;1.67;;
27333;SDS011;14817;57.104;-2.094;2024-03-29T01:23:44;14.85;;;2.40;;
27333;SDS011;14817;57.104;-2.094;2024-03-29T01:26:09;11.32;;;2.42;;
27333;SDS011;14817;57.104;-2.094;2024-03-29T01:28:38;14.90;;;2.78;;
27333;SDS011;14817;57.104;-2.094;2024-03-29T01:31:04;13.43;;;2.40;;
27333;SDS011;14817;57.104;-2.094;2024-03-29T01:33:31;14.73;;;2.20;;
27333;SDS011;14817;57.104;-2.094;2024-03-29T01:36:06;8.70;;;1.48;;
27333;SDS011;14817;57.104;-2.094;2024-03-29T01:38:32;11.57;;;1.60;;
27333;SDS011;14817;57.104;-2.094;2024-03-29T01:40:59;16.15;;;3.13;;
27333;SDS011;14817;57.104;-2.094;2024-03-29T01:43:25;10.68;;;1.55;;
27333;SDS011;14817;57.104;-2.094;2024-03-29T01:45:53;15.50;;;2.50;;
27333;SDS011;14817;57.104;-2.094;2024-03-29T01:48:20;22.83;;;2.50;;
27333;SDS011;14817;57.104;-2.094;2024-03-29T01:50:48;18.02;;;3.08;;
27333;SDS011;14817;57.104;-2.094;2024-03-29T01:53:15;12.30;;;2.45;;
27333;SDS011;14817;57.104;-2.094;2024-03-29T01:55:44;24.35;;;3.92;;
27333;SDS011;14817;57.104;-2.094;2024-03-29T01:58:10;16.48;;;2.47;;
27333;SDS011;14817;57.104;-2.094;2024-03-29T02:00:36;13.35;;;1.88;;
27333;SDS011;14817;57.104;-2.094;2024-03-29T02:03:08;14.85;;;2.28;;
27333;SDS011;14817;57.104;-2.094;2024-03-29T02:05:41;13.48;;;2.30;;
27333;SDS011;14817;57.104;-2.094;2024-03-29T02:08:08;15.95;;;2.40;;
27333;SDS011;14817;57.104;-2.094;2024-03-29T02:10:36;16.23;;;2.88;;
27333;SDS011;14817;57.104;-2.094;2024-03-29T02:13:03;15.27;;;2.42;;
27333;SDS011;14817;57.104;-2.094;2024-03-29T02:15:30;22.60;;;2.75;;
27333;SDS011;14817;57.104;-2.094;2024-03-29T02:17:56;15.77;;;2.20;;
27333;SDS011;14817;57.104;-2.094;2024-03-29T02:20:22;16.45;;;2.28;;
27333;SDS011;14817;57.104;-2.094;2024-03-29T02:22:58;14.52;;;2.80;;
27333;SDS011;14817;57.104;-2.094;2024-03-29T02:25:32;15.88;;;2.53;;
27333;SDS011;14817;57.104;-2.094;2024-03-29T02:27:58;13.15;;;2.05;;
27333;SDS011;14817;57.104;-2.094;2024-03-29T02:30:26;18.83;;;3.97;;
27333;SDS011;14817;57.104;-2.094;2024-03-29T02:32:52;17.60;;;3.60;;
27333;SDS011;14817;57.104;-2.094;2024-03-29T02:35:18;16.85;;;2.85;;
27333;SDS011;14817;57.104;-2.094;2024-03-29T02:37:44;15.32;;;3.03;;
27333;SDS011;14817;57.104;-2.094;2024-03-29T02:40:10;10.85;;;2.50;;
27333;SDS011;14817;57.104;-2.094;2024-03-29T02:42:36;16.98;;;2.47;;
27333;SDS011;14817;57.104;-2.094;2024-03-29T02:45:03;19.60;;;3.17;;
27333;SDS011;14817;57.104;-2.094;2024-03-29T02:47:29;14.05;;;2.90;;
27333;SDS011;14817;57.104;-2.094;2024-03-29T02:49:55;13.38;;;2.15;;
27333;SDS011;14817;57.104;-2.094;2024-03-29T02:52:21;18.95;;;2.92;;
27333;SDS011;14817;57.104;-2.094;2024-03-29T02:54:47;17.55;;;2.67;;
27333;SDS011;14817;57.104;-2.094;2024-03-29T02:57:12;14.88;;;3.05;;
27333;SDS011;14817;57.104;-2.094;2024-03-29T02:59:41;30.77;;;4.65;;
27333;SDS011;14817;57.104;-2.094;2024-03-29T03:02:08;16.08;;;3.42;;
27333;SDS011;14817;57.104;-2.094;2024-03-29T03:04:34;13.30;;;3.53;;
27333;SDS011;14817;57.104;-2.094;2024-03-29T03:07:00;15.73;;;3.40;;
27333;SDS011;14817;57.104;-2.094;2024-03-29T03:12:36;9.57;;;2.05;;
27333;SDS011;14817;57.104;-2.094;2024-03-29T03:15:01;15.25;;;2.58;;
27333;SDS011;14817;57.104;-2.094;2024-03-29T03:17:28;12.70;;;3.22;;
27333;SDS011;14817;57.104;-2.094;2024-03-29T03:19:54;14.63;;;3.30;;
27333;SDS011;14817;57.104;-2.094;2024-03-29T03:22:20;22.20;;;3.60;;
27333;SDS011;14817;57.104;-2.094;2024-03-29T03:24:46;17.38;;;3.90;;
27333;SDS011;14817;57.104;-2.094;2024-03-29T03:27:12;18.80;;;2.78;;
27333;SDS011;14817;57.104;-2.094;2024-03-29T03:29:38;14.57;;;4.22;;
27333;SDS011;14817;57.104;-2.094;2024-03-29T03:32:05;16.08;;;3.38;;
27333;SDS011;14817;57.104;-2.094;2024-03-29T03:34:31;15.05;;;2.55;;
27333;SDS011;14817;57.104;-2.094;2024-03-29T03:36:58;14.32;;;2.85;;
27333;SDS011;14817;57.104;-2.094;2024-03-29T03:39:24;10.10;;;2.78;;
27333;SDS011;14817;57.104;-2.094;2024-03-29T03:41:50;10.95;;;2.28;;
27333;SDS011;14817;57.104;-2.094;2024-03-29T03:44:16;18.75;;;4.60;;
27333;SDS011;14817;57.104;-2.094;2024-03-29T03:46:42;10.68;;;3.08;;
27333;SDS011;14817;57.104;-2.094;2024-03-29T03:49:08;8.18;;;2.53;;
27333;SDS011;14817;57.104;-2.094;2024-03-29T03:51:34;12.35;;;2.95;;
27333;SDS011;14817;57.104;-2.094;2024-03-29T03:53:59;6.00;;;2.13;;
27333;SDS011;14817;57.104;-2.094;2024-03-29T03:56:25;16.05;;;3.08;;
27333;SDS011;14817;57.104;-2.094;2024-03-29T03:58:51;11.55;;;2.45;;
27333;SDS011;14817;57.104;-2.094;2024-03-29T04:01:17;8.93;;;2.90;;
27333;SDS011;14817;57.104;-2.094;2024-03-29T04:03:42;10.25;;;3.00;;
27333;SDS011;14817;57.104;-2.094;2024-03-29T04:06:08;5.63;;;2.38;;
27333;SDS011;14817;57.104;-2.094;2024-03-29T04:08:34;18.80;;;3.33;;
27333;SDS011;14817;57.104;-2.094;2024-03-29T04:11:04;8.40;;;2.25;;
27333;SDS011;14817;57.104;-2.094;2024-03-29T04:13:30;8.80;;;2.85;;
27333;SDS011;14817;57.104;-2.094;2024-03-29T04:16:02;16.20;;;3.88;;
27333;SDS011;14817;57.104;-2.094;2024-03-29T04:18:29;11.63;;;3.03;;
27333;SDS011;14817;57.104;-2.094;2024-03-29T04:21:01;12.18;;;3.20;;
27333;SDS011;14817;57.104;-2.094;2024-03-29T04:23:28;7.00;;;2.53;;
27333;SDS011;14817;57.104;-2.094;2024-03-29T04:28:23;9.07;;;2.65;;
27333;SDS011;14817;57.104;-2.094;2024-03-29T04:30:56;8.52;;;3.25;;
27333;SDS011;14817;57.104;-2.094;2024-03-29T04:33:23;8.80;;;2.65;;
27333;SDS011;14817;57.104;-2.094;2024-03-29T04:35:51;14.32;;;4.35;;
27333;SDS011;14817;57.104;-2.094;2024-03-29T04:38:19;8.88;;;2.30;;
27333;SDS011;14817;57.104;-2.094;2024-03-29T04:40:45;11.20;;;2.47;;
27333;SDS011;14817;57.104;-2.094;2024-03-29T04:43:10;10.07;;;3.08;;
27333;SDS011;14817;57.104;-2.094;2024-03-29T04:45:36;9.85;;;3.35;;
27333;SDS011;14817;57.104;-2.094;2024-03-29T04:48:02;7.30;;;2.70;;
27333;SDS011;14817;57.104;-2.094;2024-03-29T04:50:28;6.43;;;2.47;;
27333;SDS011;14817;57.104;-2.094;2024-03-29T04:52:54;7.18;;;2.13;;
27333;SDS011;14817;57.104;-2.094;2024-03-29T04:55:19;7.75;;;3.30;;
27333;SDS011;14817;57.104;-2.094;2024-03-29T04:57:45;8.00;;;2.80;;
27333;SDS011;14817;57.104;-2.094;2024-03-29T05:00:11;8.93;;;3.53;;
27333;SDS011;14817;57.104;-2.094;2024-03-29T05:02:37;12.68;;;4.53;;
27333;SDS011;14817;57.104;-2.094;2024-03-29T05:05:03;6.20;;;3.42;;
27333;SDS011;14817;57.104;-2.094;2024-03-29T05:07:30;10.50;;;4.45;;
27333;SDS011;14817;57.104;-2.094;2024-03-29T05:09:56;10.23;;;3.80;;
27333;SDS011;14817;57.104;-2.094;2024-03-29T05:12:22;13.88;;;4.30;;
27333;SDS011;14817;57.104;-2.094;2024-03-29T05:14:48;23.15;;;5.80;;
27333;SDS011;14817;57.104;-2.094;2024-03-29T05:17:14;11.75;;;3.50;;
27333;SDS011;14817;57.104;-2.094;2024-03-29T05:19:41;8.57;;;2.65;;
27333;SDS011;14817;57.104;-2.094;2024-03-29T05:22:07;12.13;;;4.22;;
27333;SDS011;14817;57.104;-2.094;2024-03-29T05:24:33;10.82;;;3.90;;
27333;SDS011;14817;57.104;-2.094;2024-03-29T05:26:58;15.55;;;4.55;;
27333;SDS011;14817;57.104;-2.094;2024-03-29T05:29:24;11.05;;;4.40;;
27333;SDS011;14817;57.104;-2.094;2024-03-29T05:31:50;11.70;;;4.05;;
27333;SDS011;14817;57.104;-2.094;2024-03-29T05:34:16;10.10;;;4.75;;
27333;SDS011;14817;57.104;-2.094;2024-03-29T05:36:41;11.00;;;3.42;;
27333;SDS011;14817;57.104;-2.094;2024-03-29T05:39:09;14.63;;;4.40;;
27333;SDS011;14817;57.104;-2.094;2024-03-29T05:41:35;8.38;;;2.80;;
27333;SDS011;14817;57.104;-2.094;2024-03-29T05:44:01;10.05;;;3.67;;
27333;SDS011;14817;57.104;-2.094;2024-03-29T05:46:27;7.75;;;3.20;;
27333;SDS011;14817;57.104;-2.094;2024-03-29T05:48:52;7.30;;;2.70;;
27333;SDS011;14817;57.104;-2.094;2024-03-29T05:51:18;6.68;;;2.53;;
27333;SDS011;14817;57.104;-2.094;2024-03-29T05:53:44;9.02;;;3.00;;
27333;SDS011;14817;57.104;-2.094;2024-03-29T05:56:10;8.65;;;3.45;;
27333;SDS011;14817;57.104;-2.094;2024-03-29T05:58:36;9.50;;;2.88;;
27333;SDS011;14817;57.104;-2.094;2024-03-29T06:01:02;5.18;;;2.42;;
27333;SDS011;14817;57.104;-2.094;2024-03-29T06:03:28;12.70;;;3.72;;
27333;SDS011;14817;57.104;-2.094;2024-03-29T06:05:55;17.27;;;4.22;;
27333;SDS011;14817;57.104;-2.094;2024-03-29T06:08:21;9.23;;;3.22;;
27333;SDS011;14817;57.104;-2.094;2024-03-29T06:10:49;14.82;;;5.05;;
27333;SDS011;14817;57.104;-2.094;2024-03-29T06:13:14;11.65;;;4.00;;
27333;SDS011;14817;57.104;-2.094;2024-03-29T06:15:55;14.95;;;4.10;;
27333;SDS011;14817;57.104;-2.094;2024-03-29T06:18:39;10.55;;;2.63;;
27333;SDS011;14817;57.104;-2.094;2024-03-29T06:21:05;11.95;;;4.00;;
27333;SDS011;14817;57.104;-2.094;2024-03-29T06:23:31;15.27;;;4.13;;
27333;SDS011;14817;57.104;-2.094;2024-03-29T06:25:56;7.53;;;2.80;;
27333;SDS011;14817;57.104;-2.094;2024-03-29T06:28:22;14.93;;;3.53;;
27333;SDS011;14817;57.104;-2.094;2024-03-29T06:30:48;9.35;;;3.13;;
27333;SDS011;14817;57.104;-2.094;2024-03-29T06:33:14;10.48;;;3.05;;
27333;SDS011;14817;57.104;-2.094;2024-03-29T06:35:39;8.70;;;2.65;;
27333;SDS011;14817;57.104;-2.094;2024-03-29T06:38:06;10.52;;;3.80;;
27333;SDS011;14817;57.104;-2.094;2024-03-29T06:40:31;9.75;;;3.42;;
27333;SDS011;14817;57.104;-2.094;2024-03-29T06:42:57;10.73;;;3.78;;
27333;SDS011;14817;57.104;-2.094;2024-03-29T06:45:25;9.38;;;3.33;;
27333;SDS011;14817;57.104;-2.094;2024-03-29T06:47:50;10.20;;;3.05;;
27333;SDS011;14817;57.104;-2.094;2024-03-29T06:50:17;13.18;;;3.80;;
27333;SDS011;14817;57.104;-2.094;2024-03-29T06:52:43;13.70;;;3.70;;
27333;SDS011;14817;57.104;-2.094;2024-03-29T06:55:09;13.48;;;4.15;;
27333;SDS011;14817;57.104;-2.094;2024-03-29T06:57:35;9.10;;;2.45;;
27333;SDS011;14817;57.104;-2.094;2024-03-29T07:00:02;10.23;;;2.42;;
27333;SDS011;14817;57.104;-2.094;2024-03-29T07:02:28;9.50;;;2.58;;
27333;SDS011;14817;57.104;-2.094;2024-03-29T07:04:54;8.68;;;2.95;;
27333;SDS011;14817;57.104;-2.094;2024-03-29T07:07:20;8.60;;;3.47;;
27333;SDS011;14817;57.104;-2.094;2024-03-29T07:09:46;17.45;;;3.85;;
27333;SDS011;14817;57.104;-2.094;2024-03-29T07:12:12;11.88;;;3.70;;
27333;SDS011;14817;57.104;-2.094;2024-03-29T07:14:37;16.55;;;3.60;;
27333;SDS011;14817;57.104;-2.094;2024-03-29T07:17:03;9.77;;;2.28;;
27333;SDS011;14817;57.104;-2.094;2024-03-29T07:19:29;2.88;;;1.85;;
27333;SDS011;14817;57.104;-2.094;2024-03-29T07:21:55;3.10;;;1.67;;
27333;SDS011;14817;57.104;-2.094;2024-03-29T07:24:21;8.77;;;2.33;;
27333;SDS011;14817;57.104;-2.094;2024-03-29T07:26:47;4.72;;;2.22;;
27333;SDS011;14817;57.104;-2.094;2024-03-29T07:29:13;9.55;;;2.83;;
27333;SDS011;14817;57.104;-2.094;2024-03-29T07:31:38;7.22;;;2.20;;
27333;SDS011;14817;57.104;-2.094;2024-03-29T07:34:04;9.77;;;2.00;;
27333;SDS011;14817;57.104;-2.094;2024-03-29T07:36:30;5.60;;;2.03;;
27333;SDS011;14817;57.104;-2.094;2024-03-29T07:39:01;7.25;;;2.08;;
27333;SDS011;14817;57.104;-2.094;2024-03-29T07:41:29;10.38;;;2.60;;
27333;SDS011;14817;57.104;-2.094;2024-03-29T07:43:56;6.63;;;1.92;;
27333;SDS011;14817;57.104;-2.094;2024-03-29T07:46:27;9.63;;;2.67;;
27333;SDS011;14817;57.104;-2.094;2024-03-29T07:48:55;7.85;;;2.30;;
27333;SDS011;14817;57.104;-2.094;2024-03-29T07:51:21;8.88;;;3.03;;
27333;SDS011;14817;57.104;-2.094;2024-03-29T07:53:47;7.72;;;2.60;;
27333;SDS011;14817;57.104;-2.094;2024-03-29T07:56:13;6.28;;;2.35;;
27333;SDS011;14817;57.104;-2.094;2024-03-29T07:58:39;6.45;;;2.30;;
27333;SDS011;14817;57.104;-2.094;2024-03-29T08:01:05;9.77;;;2.30;;
27333;SDS011;14817;57.104;-2.094;2024-03-29T08:03:31;8.90;;;2.72;;
27333;SDS011;14817;57.104;-2.094;2024-03-29T08:06:01;10.38;;;3.13;;
27333;SDS011;14817;57.104;-2.094;2024-03-29T08:08:31;10.00;;;3.30;;
27333;SDS011;14817;57.104;-2.094;2024-03-29T08:11:00;7.93;;;3.20;;
27333;SDS011;14817;57.104;-2.094;2024-03-29T08:13:26;12.18;;;3.25;;
27333;SDS011;14817;57.104;-2.094;2024-03-29T08:15:56;13.85;;;4.07;;
27333;SDS011;14817;57.104;-2.094;2024-03-29T08:18:23;6.95;;;3.33;;
27333;SDS011;14817;57.104;-2.094;2024-03-29T08:20:49;8.48;;;3.10;;
27333;SDS011;14817;57.104;-2.094;2024-03-29T08:23:15;12.60;;;3.88;;
27333;SDS011;14817;57.104;-2.094;2024-03-29T08:25:41;9.25;;;2.67;;
27333;SDS011;14817;57.104;-2.094;2024-03-29T08:28:07;8.95;;;3.03;;
27333;SDS011;14817;57.104;-2.094;2024-03-29T08:30:33;8.82;;;2.67;;
27333;SDS011;14817;57.104;-2.094;2024-03-29T08:33:02;8.45;;;2.97;;
27333;SDS011;14817;57.104;-2.094;2024-03-29T08:35:29;9.95;;;1.88;;
27333;SDS011;14817;57.104;-2.094;2024-03-29T08:37:55;5.07;;;1.95;;
27333;SDS011;14817;57.104;-2.094;2024-03-29T08:40:21;5.82;;;1.85;;
27333;SDS011;14817;57.104;-2.094;2024-03-29T08:42:47;11.32;;;2.38;;
27333;SDS011;14817;57.104;-2.094;2024-03-29T08:45:13;6.07;;;1.75;;
27333;SDS011;14817;57.104;-2.094;2024-03-29T08:47:39;4.32;;;1.50;;
27333;SDS011;14817;57.104;-2.094;2024-03-29T08:50:05;6.07;;;1.63;;
27333;SDS011;14817;57.104;-2.094;2024-03-29T08:52:31;8.07;;;2.15;;
27333;SDS011;14817;57.104;-2.094;2024-03-29T08:54:57;4.47;;;1.40;;
27333;SDS011;14817;57.104;-2.094;2024-03-29T08:57:23;5.63;;;1.88;;
27333;SDS011;14817;57.104;-2.094;2024-03-29T08:59:49;6.13;;;1.42;;
27333;SDS011;14817;57.104;-2.094;2024-03-29T09:02:15;8.13;;;1.95;;
27333;SDS011;14817;57.104;-2.094;2024-03-29T09:04:41;6.03;;;1.98;;
27333;SDS011;14817;57.104;-2.094;2024-03-29T09:07:06;10.73;;;2.15;;
27333;SDS011;14817;57.104;-2.094;2024-03-29T09:09:32;7.00;;;2.03;;
27333;SDS011;14817;57.104;-2.094;2024-03-29T09:11:58;6.97;;;1.65;;
27333;SDS011;14817;57.104;-2.094;2024-03-29T09:14:25;7.03;;;1.77;;
27333;SDS011;14817;57.104;-2.094;2024-03-29T09:16:51;6.72;;;1.63;;
27333;SDS011;14817;57.104;-2.094;2024-03-29T09:19:17;3.58;;;1.63;;
27333;SDS011;14817;57.104;-2.094;2024-03-29T09:21:42;6.10;;;1.30;;
27333;SDS011;14817;57.104;-2.094;2024-03-29T09:24:08;3.53;;;1.50;;
27333;SDS011;14817;57.104;-2.094;2024-03-29T09:26:34;6.97;;;1.70;;
27333;SDS011;14817;57.104;-2.094;2024-03-29T09:29:00;8.57;;;2.15;;
27333;SDS011;14817;57.104;-2.094;2024-03-29T09:31:26;7.55;;;2.35;;
27333;SDS011;14817;57.104;-2.094;2024-03-29T09:33:52;5.45;;;1.38;;
27333;SDS011;14817;57.104;-2.094;2024-03-29T09:36:23;7.60;;;1.80;;
27333;SDS011;14817;57.104;-2.094;2024-03-29T09:38:49;6.75;;;1.50;;
27333;SDS011;14817;57.104;-2.094;2024-03-29T09:41:16;4.78;;;1.50;;
27333;SDS011;14817;57.104;-2.094;2024-03-29T09:43:45;3.83;;;1.48;;
27333;SDS011;14817;57.104;-2.094;2024-03-29T09:46:13;5.82;;;2.10;;
27333;SDS011;14817;57.104;-2.094;2024-03-29T09:48:40;15.10;;;1.73;;
27333;SDS011;14817;57.104;-2.094;2024-03-29T09:51:07;4.10;;;1.65;;
27333;SDS011;14817;57.104;-2.094;2024-03-29T09:53:34;5.78;;;1.20;;
27333;SDS011;14817;57.104;-2.094;2024-03-29T09:56:03;5.22;;;1.60;;
27333;SDS011;14817;57.104;-2.094;2024-03-29T09:58:31;4.82;;;2.10;;
27333;SDS011;14817;57.104;-2.094;2024-03-29T10:00:57;7.00;;;2.20;;
27333;SDS011;14817;57.104;-2.094;2024-03-29T10:03:24;9.05;;;1.85;;
27333;SDS011;14817;57.104;-2.094;2024-03-29T10:05:56;5.90;;;1.40;;
27333;SDS011;14817;57.104;-2.094;2024-03-29T10:08:23;3.95;;;1.73;;
27333;SDS011;14817;57.104;-2.094;2024-03-29T10:10:50;4.47;;;1.40;;
27333;SDS011;14817;57.104;-2.094;2024-03-29T10:13:17;6.93;;;1.80;;
27333;SDS011;14817;57.104;-2.094;2024-03-29T10:15:43;4.88;;;1.45;;
27333;SDS011;14817;57.104;-2.094;2024-03-29T10:18:12;6.03;;;1.55;;
27333;SDS011;14817;57.104;-2.094;2024-03-29T10:20:38;3.63;;;1.17;;
27333;SDS011;14817;57.104;-2.094;2024-03-29T10:23:04;6.00;;;1.40;;
27333;SDS011;14817;57.104;-2.094;2024-03-29T10:25:33;2.75;;;1.30;;
27333;SDS011;14817;57.104;-2.094;2024-03-29T10:28:00;6.20;;;1.65;;
27333;SDS011;14817;57.104;-2.094;2024-03-29T10:30:28;3.13;;;1.35;;
27333;SDS011;14817;57.104;-2.094;2024-03-29T10:32:55;6.78;;;1.52;;
27333;SDS011;14817;57.104;-2.094;2024-03-29T10:35:22;6.55;;;2.05;;
27333;SDS011;14817;57.104;-2.094;2024-03-29T10:37:52;3.95;;;1.77;;
27333;SDS011;14817;57.104;-2.094;2024-03-29T10:40:18;5.20;;;2.28;;
27333;SDS011;14817;57.104;-2.094;2024-03-29T10:42:46;6.85;;;1.45;;
27333;SDS011;14817;57.104;-2.094;2024-03-29T10:45:14;4.95;;;1.63;;
27333;SDS011;14817;57.104;-2.094;2024-03-29T10:47:42;2.53;;;0.98;;
27333;SDS011;14817;57.104;-2.094;2024-03-29T10:50:10;5.43;;;1.10;;
27333;SDS011;14817;57.104;-2.094;2024-03-29T10:52:38;6.28;;;1.40;;
27333;SDS011;14817;57.104;-2.094;2024-03-29T10:55:07;8.50;;;1.40;;
27333;SDS011;14817;57.104;-2.094;2024-03-29T10:57:33;6.03;;;1.35;;
27333;SDS011;14817;57.104;-2.094;2024-03-29T11:00:11;5.78;;;1.52;;
27333;SDS011;14817;57.104;-2.094;2024-03-29T11:05:43;6.03;;;1.50;;
27333;SDS011;14817;57.104;-2.094;2024-03-29T11:08:13;5.30;;;1.30;;
27333;SDS011;14817;57.104;-2.094;2024-03-29T11:10:44;2.78;;;1.33;;
27333;SDS011;14817;57.104;-2.094;2024-03-29T11:16:04;3.95;;;1.20;;
27333;SDS011;14817;57.104;-2.094;2024-03-29T11:18:30;5.57;;;1.48;;
27333;SDS011;14817;57.104;-2.094;2024-03-29T11:20:57;3.65;;;1.33;;
27333;SDS011;14817;57.104;-2.094;2024-03-29T11:23:25;3.63;;;0.85;;
27333;SDS011;14817;57.104;-2.094;2024-03-29T11:25:53;3.20;;;1.20;;
27333;SDS011;14817;57.104;-2.094;2024-03-29T11:28:30;3.67;;;1.10;;
27333;SDS011;14817;57.104;-2.094;2024-03-29T11:33:26;2.67;;;1.00;;
27333;SDS011;14817;57.104;-2.094;2024-03-29T11:35:54;4.18;;;1.30;;
27333;SDS011;14817;57.104;-2.094;2024-03-29T11:38:20;11.13;;;1.80;;
27333;SDS011;14817;57.104;-2.094;2024-03-29T11:43:29;4.00;;;1.20;;
27333;SDS011;14817;57.104;-2.094;2024-03-29T11:45:58;5.90;;;1.20;;
27333;SDS011;14817;57.104;-2.094;2024-03-29T11:48:27;4.80;;;1.38;;
27333;SDS011;14817;57.104;-2.094;2024-03-29T11:50:53;6.82;;;1.73;;
27333;SDS011;14817;57.104;-2.094;2024-03-29T11:53:20;4.10;;;1.27;;
27333;SDS011;14817;57.104;-2.094;2024-03-29T11:55:46;4.95;;;1.30;;
27333;SDS011;14817;57.104;-2.094;2024-03-29T11:58:19;6.60;;;1.92;;
27333;SDS011;14817;57.104;-2.094;2024-03-29T12:00:52;5.95;;;1.98;;
27333;SDS011;14817;57.104;-2.094;2024-03-29T12:03:19;5.30;;;1.65;;
27333;SDS011;14817;57.104;-2.094;2024-03-29T12:05:48;6.60;;;1.83;;
27333;SDS011;14817;57.104;-2.094;2024-03-29T12:08:24;6.22;;;1.90;;
27333;SDS011;14817;57.104;-2.094;2024-03-29T12:10:52;8.43;;;2.33;;
27333;SDS011;14817;57.104;-2.094;2024-03-29T12:13:17;6.63;;;2.17;;
27333;SDS011;14817;57.104;-2.094;2024-03-29T12:15:44;8.48;;;2.38;;
27333;SDS011;14817;57.104;-2.094;2024-03-29T12:18:10;6.68;;;2.08;;
27333;SDS011;14817;57.104;-2.094;2024-03-29T12:20:37;12.43;;;2.30;;
27333;SDS011;14817;57.104;-2.094;2024-03-29T12:23:06;6.70;;;1.95;;
27333;SDS011;14817;57.104;-2.094;2024-03-29T12:25:37;4.82;;;1.60;;
27333;SDS011;14817;57.104;-2.094;2024-03-29T12:28:03;2.78;;;1.13;;
27333;SDS011;14817;57.104;-2.094;2024-03-29T12:30:29;3.72;;;0.90;;
27333;SDS011;14817;57.104;-2.094;2024-03-29T12:33:05;5.47;;;1.65;;
27333;SDS011;14817;57.104;-2.094;2024-03-29T12:35:33;9.18;;;1.55;;
27333;SDS011;14817;57.104;-2.094;2024-03-29T12:38:00;6.50;;;1.52;;
27333;SDS011;14817;57.104;-2.094;2024-03-29T12:40:29;7.55;;;1.63;;
27333;SDS011;14817;57.104;-2.094;2024-03-29T12:43:04;6.28;;;2.15;;
27333;SDS011;14817;57.104;-2.094;2024-03-29T12:45:31;1.73;;;0.98;;
27333;SDS011;14817;57.104;-2.094;2024-03-29T12:47:57;6.32;;;1.27;;
27333;SDS011;14817;57.104;-2.094;2024-03-29T12:52:54;5.50;;;1.33;;
27333;SDS011;14817;57.104;-2.094;2024-03-29T12:55:21;4.05;;;1.00;;
27333;SDS011;14817;57.104;-2.094;2024-03-29T12:57:50;10.35;;;1.15;;
27333;SDS011;14817;57.104;-2.094;2024-03-29T13:00:21;5.68;;;0.73;;
27333;SDS011;14817;57.104;-2.094;2024-03-29T13:02:48;2.95;;;1.00;;
27333;SDS011;14817;57.104;-2.094;2024-03-29T13:05:15;4.78;;;1.33;;
27333;SDS011;14817;57.104;-2.094;2024-03-29T13:07:41;5.25;;;0.90;;
27333;SDS011;14817;57.104;-2.094;2024-03-29T13:10:08;4.63;;;1.60;;
27333;SDS011;14817;57.104;-2.094;2024-03-29T13:12:46;2.70;;;0.80;;
27333;SDS011;14817;57.104;-2.094;2024-03-29T13:15:19;4.40;;;1.35;;
27333;SDS011;14817;57.104;-2.094;2024-03-29T13:17:47;4.68;;;0.98;;
27333;SDS011;14817;57.104;-2.094;2024-03-29T13:20:14;4.18;;;1.23;;
27333;SDS011;14817;57.104;-2.094;2024-03-29T13:22:41;7.68;;;0.98;;
27333;SDS011;14817;57.104;-2.094;2024-03-29T13:25:12;4.57;;;1.33;;
27333;SDS011;14817;57.104;-2.094;2024-03-29T13:27:39;6.28;;;0.82;;
27333;SDS011;14817;57.104;-2.094;2024-03-29T13:30:06;6.45;;;1.90;;
27333;SDS011;14817;57.104;-2.094;2024-03-29T13:32:40;4.43;;;0.65;;
27333;SDS011;14817;57.104;-2.094;2024-03-29T13:35:06;5.47;;;0.85;;
27333;SDS011;14817;57.104;-2.094;2024-03-29T13:37:39;5.60;;;0.85;;
27333;SDS011;14817;57.104;-2.094;2024-03-29T13:40:09;5.93;;;1.02;;
27333;SDS011;14817;57.104;-2.094;2024-03-29T13:42:36;5.45;;;1.30;;
27333;SDS011;14817;57.104;-2.094;2024-03-29T13:45:03;8.57;;;1.35;;
27333;SDS011;14817;57.104;-2.094;2024-03-29T13:47:31;5.82;;;1.85;;
27333;SDS011;14817;57.104;-2.094;2024-03-29T13:49:58;4.45;;;1.50;;
27333;SDS011;14817;57.104;-2.094;2024-03-29T13:52:24;4.13;;;1.17;;
27333;SDS011;14817;57.104;-2.094;2024-03-29T13:54:52;5.25;;;1.30;;
27333;SDS011;14817;57.104;-2.094;2024-03-29T13:57:18;6.82;;;1.40;;
27333;SDS011;14817;57.104;-2.094;2024-03-29T13:59:44;4.30;;;1.10;;
27333;SDS011;14817;57.104;-2.094;2024-03-29T14:02:17;5.07;;;1.08;;
27333;SDS011;14817;57.104;-2.094;2024-03-29T14:04:44;2.92;;;1.05;;
27333;SDS011;14817;57.104;-2.094;2024-03-29T14:07:11;4.72;;;1.40;;
27333;SDS011;14817;57.104;-2.094;2024-03-29T14:09:39;10.90;;;1.05;;
27333;SDS011;14817;57.104;-2.094;2024-03-29T14:12:08;5.65;;;1.10;;
27333;SDS011;14817;57.104;-2.094;2024-03-29T14:14:35;4.85;;;1.00;;
27333;SDS011;14817;57.104;-2.094;2024-03-29T14:17:01;7.88;;;1.00;;
27333;SDS011;14817;57.104;-2.094;2024-03-29T14:19:35;7.15;;;2.10;;
27333;SDS011;14817;57.104;-2.094;2024-03-29T14:22:02;6.15;;;0.90;;
27333;SDS011;14817;57.104;-2.094;2024-03-29T14:24:29;7.25;;;1.50;;
27333;SDS011;14817;57.104;-2.094;2024-03-29T14:26:56;8.07;;;1.50;;
27333;SDS011;14817;57.104;-2.094;2024-03-29T14:29:22;8.10;;;1.30;;
27333;SDS011;14817;57.104;-2.094;2024-03-29T14:31:48;7.28;;;1.70;;
27333;SDS011;14817;57.104;-2.094;2024-03-29T14:34:15;5.50;;;1.60;;
27333;SDS011;14817;57.104;-2.094;2024-03-29T14:36:42;6.35;;;1.52;;
27333;SDS011;14817;57.104;-2.094;2024-03-29T14:39:08;8.85;;;1.77;;
27333;SDS011;14817;57.104;-2.094;2024-03-29T14:41:34;6.10;;;2.08;;
27333;SDS011;14817;57.104;-2.094;2024-03-29T14:44:02;4.70;;;1.80;;
27333;SDS011;14817;57.104;-2.094;2024-03-29T14:46:28;5.07;;;1.38;;